Killeen, TX

8:57 AM CDT en Julio 29, 2016 (GMT -0500)
Pecan Valley | | Change Station

Alt 942 ft 31.11 °N, 97.99 °W | Updated 22 seconds ago

Haze
Bruma
78.3 ° F
Sensación térmica 81 ° F
N
2.0
Viento Variable Viento desde SO
Gusts 9.0 mph

Hoy
Alta -- | Baja -- ° F
--% Posibilidad de precipitaciones
Ayer
Alta -- | Baja -- ° F
Precip. -- pul
Presión 30.00 pul
Visibilidad 6.0 Millas
Nubes Baja 1400 ft
Índice de calor 81 ° F
Punto de rocío 73 ° F
Humedad 83%
Precipitaciones 0.00 pul
Espesor de la nieve No disponible.
6:47 AM 8:29 PM
Creciente menguante, 22% visible
METAR KGRK 291255Z 21004KT 6SM HZ FEW014 24/21 A3004 RMK AO2A SLP159
Presión 30.00 pul
Visibilidad 6.0 Millas
Nubes Baja 1400 ft
Índice de calor 81 ° F
Punto de rocío 73 ° F
Humedad 83%
Precipitaciones 0.00 pul
Espesor de la nieve No disponible.
6:47 AM 8:29 PM
Creciente menguante, 22% visible
METAR KGRK 291255Z 21004KT 6SM HZ FEW014 24/21 A3004 RMK AO2A SLP159

10-Day Weather Forecast

Almanac

Astronomía

Jul. 29, 2016 Salida Puesta
Hora real
Crepúsculo civil
Crepúsculo náutico
Crepúsculo astronómico
Luna
Horas de luz
Horas de luz
Tomorrow will be .
, % of the Moon is Illuminated

Extremos de hoy

Máximos del estado Bajos del estado

Community

WunderPhotos

Upload Photos

1,928,340 ¡fotos cargadas!

WunderBlog® & News

Nearby

Calidad del aire

  Calidad del aire Índice AQ Contaminante
Not available.

Grosos de nieve

Estación Profundido Altura

Actividad de terremotos

Ciudad Distance Mag. Tiempo y dato
Magnitud mínima muestra es 2,5.

Temperaturas de aguas costeras

Lugar Temperatura

Stations

Estaciones meteorológicas cercanas

Ubicación de la estación Temp. Vientos helados Punto de rocío Humedad Viento Precip. Alt Actualizado Tipo
                   

Watches & Warnings

There are currently no watches in effect.